Time;durP1;ratioP1;P1;durP2;ratioP2;P2;SDS_P1;SDS_P2;PMS_P1;PMS_P2;Temp;Humidity;BMP_temperature;BMP_pressure;BME280_temperature;BME280_humidity;BME280_pressure;Samples;Min_cycle;Max_cycle;Signal;HPM_P1;HPM_P2
2022/09/03 00:02:15;;;;;;;1.73;1.63;;;17.30;98.30;;;;;;6069932;23;20427;-68
2022/09/03 00:04:52;;;;;;;1.60;1.50;;;17.30;98.20;;;;;;6085424;23;20845;-68
2022/09/03 00:07:28;;;;;;;2.90;1.93;;;17.30;98.40;;;;;;6081047;23;20458;-68
2022/09/03 00:09:59;;;;;;;1.57;1.47;;;17.30;98.50;;;;;;6068675;23;20933;-68
2022/09/03 00:12:29;;;;;;;1.83;1.70;;;17.30;98.50;;;;;;6087081;23;20459;-68
2022/09/03 00:15:03;;;;;;;2.30;1.83;;;17.30;98.50;;;;;;6085838;23;20469;-68
2022/09/03 00:17:34;;;;;;;1.70;1.60;;;17.30;98.70;;;;;;6085859;23;20504;-68
2022/09/03 00:20:06;;;;;;;2.20;1.60;;;17.30;98.60;;;;;;6064407;23;20797;-68
2022/09/03 00:22:39;;;;;;;1.37;1.27;;;17.30;98.70;;;;;;6085759;23;20462;-68
2022/09/03 00:25:13;;;;;;;1.90;1.70;;;17.30;98.70;;;;;;6088156;23;21054;-68
2022/09/03 00:27:43;;;;;;;3.67;1.80;;;17.30;98.80;;;;;;6086545;23;20438;-68
2022/09/03 00:30:14;;;;;;;2.53;1.73;;;17.30;98.80;;;;;;6087394;23;20856;-68
2022/09/03 00:32:46;;;;;;;1.93;1.60;;;17.30;98.80;;;;;;6083413;23;20459;-68
2022/09/03 00:35:19;;;;;;;2.23;2.00;;;17.30;98.90;;;;;;6086949;23;21034;-68
2022/09/03 00:37:48;;;;;;;2.03;1.50;;;17.30;98.90;;;;;;6086442;23;20481;-71
2022/09/03 00:40:33;;;;;;;1.60;1.50;;;17.50;99.10;;;;;;6088948;23;20520;-71
2022/09/03 00:43:08;;;;;;;1.70;1.43;;;17.30;99.00;;;;;;6088337;23;20462;-71
2022/09/03 00:45:43;;;;;;;1.97;1.70;;;17.30;99.00;;;;;;6084492;23;20449;-71
2022/09/03 00:48:21;;;;;;;2.30;1.77;;;17.30;99.10;;;;;;6089412;23;20464;-71
2022/09/03 00:51:16;;;;;;;1.70;1.60;;;17.30;99.10;;;;;;6080239;23;20937;-71
2022/09/03 00:53:52;;;;;;;1.83;1.40;;;17.30;99.20;;;;;;6077752;23;20521;-71
2022/09/03 00:56:27;;;;;;;2.03;1.53;;;17.30;99.20;;;;;;6085843;23;20517;-71
2022/09/03 00:59:03;;;;;;;1.53;1.27;;;17.30;99.30;;;;;;6086914;23;20477;-71
2022/09/03 01:01:40;;;;;;;1.87;1.77;;;17.30;99.40;;;;;;6076455;23;20544;-71
2022/09/03 01:04:20;;;;;;;1.70;1.60;;;17.40;99.40;;;;;;6086874;23;20458;-71
2022/09/03 01:06:54;;;;;;;1.93;1.70;;;17.30;99.40;;;;;;6081599;23;20438;-71
2022/09/03 01:09:38;;;;;;;2.23;1.70;;;17.30;99.40;;;;;;6089970;23;20856;-71
2022/09/03 01:12:14;;;;;;;1.43;1.33;;;17.30;99.50;;;;;;6073990;23;21071;-68
2022/09/03 01:14:54;;;;;;;2.60;1.80;;;17.30;99.60;;;;;;6087534;23;20498;-68
2022/09/03 01:17:35;;;;;;;1.50;1.40;;;17.30;99.60;;;;;;6087330;23;20780;-68
2022/09/03 01:20:18;;;;;;;2.30;1.50;;;17.30;99.60;;;;;;6081469;23;20444;-68
2022/09/03 01:23:24;;;;;;;1.73;1.60;;;17.30;99.50;;;;;;6087612;23;20529;-68
2022/09/03 01:25:59;;;;;;;2.90;1.70;;;17.40;99.80;;;;;;6085222;23;20469;-68
2022/09/03 01:28:39;;;;;;;1.67;1.50;;;17.30;99.70;;;;;;6086707;23;20461;-68
2022/09/03 01:31:19;;;;;;;1.40;1.30;;;17.30;99.70;;;;;;6086298;23;20462;-68
2022/09/03 01:33:56;;;;;;;2.17;1.73;;;17.40;99.70;;;;;;6068584;23;20455;-68
2022/09/03 01:36:31;;;;;;;1.50;1.40;;;17.40;99.70;;;;;;6080625;23;20441;-68
2022/09/03 01:39:02;;;;;;;3.73;1.53;;;17.40;99.80;;;;;;6086126;23;21037;-68
2022/09/03 01:44:33;;;;;;;1.70;1.60;;;17.40;99.80;;;;;;6089206;23;20521;-70
2022/09/03 01:47:10;;;;;;;2.30;1.63;;;17.60;99.90;;;;;;6082969;23;20434;-68
2022/09/03 01:49:41;;;;;;;2.83;1.80;;;17.40;99.90;;;;;;6083740;23;20948;-68
2022/09/03 01:52:23;;;;;;;2.43;1.60;;;17.40;99.90;;;;;;6085031;23;20500;-68
2022/09/03 01:55:03;;;;;;;1.80;1.60;;;17.40;99.90;;;;;;6086927;23;20533;-68
2022/09/03 01:57:44;;;;;;;1.70;1.60;;;17.40;99.90;;;;;;6084734;23;20521;-68
2022/09/03 02:00:14;;;;;;;1.80;1.43;;;17.40;99.90;;;;;;6084057;23;20518;-68
2022/09/03 02:02:43;;;;;;;3.63;1.70;;;17.30;99.90;;;;;;6086804;23;20493;-68
2022/09/03 02:05:13;;;;;;;2.63;1.73;;;17.40;99.90;;;;;;6087821;23;20435;-68
2022/09/03 02:07:42;;;;;;;1.50;1.40;;;17.30;99.90;;;;;;6085632;23;20837;-68
2022/09/03 02:10:12;;;;;;;2.77;1.83;;;17.30;99.90;;;;;;6088681;23;20560;-68
2022/09/03 02:12:46;;;;;;;1.93;1.73;;;17.30;99.90;;;;;;6088647;23;20997;-68
2022/09/03 02:15:17;;;;;;;2.20;2.00;;;17.30;99.90;;;;;;6086327;23;20968;-68
2022/09/03 02:17:46;;;;;;;1.50;1.40;;;17.40;99.90;;;;;;6082718;23;21033;-68
2022/09/03 02:20:19;;;;;;;1.70;1.60;;;17.40;99.90;;;;;;6080870;23;20442;-68
2022/09/03 02:22:48;;;;;;;1.70;1.60;;;17.40;99.90;;;;;;6087060;23;20458;-68
2022/09/03 02:25:15;;;;;;;1.70;1.60;;;17.40;99.90;;;;;;6087697;23;20504;-68
2022/09/03 02:27:43;;;;;;;2.93;1.70;;;17.40;99.90;;;;;;6086601;23;20530;-68
2022/09/03 02:30:11;;;;;;;2.10;1.90;;;17.40;99.90;;;;;;6087361;23;20466;-68
2022/09/03 02:32:40;;;;;;;3.37;1.60;;;17.40;99.90;;;;;;6081354;23;20458;-68
2022/09/03 02:35:08;;;;;;;2.00;1.43;;;17.40;99.90;;;;;;6082093;23;20466;-68
2022/09/03 02:37:35;;;;;;;3.30;1.90;;;17.40;99.90;;;;;;6081504;23;20937;-69
2022/09/03 02:40:05;;;;;;;1.63;1.53;;;17.40;99.90;;;;;;6088248;23;20500;-68
2022/09/03 02:42:32;;;;;;;1.70;1.60;;;17.40;99.90;;;;;;6087539;23;20469;-68
2022/09/03 02:45:09;;;;;;;1.50;1.40;;;17.30;99.90;;;;;;6084401;23;20460;-68
2022/09/03 02:47:40;;;;;;;1.70;1.60;;;17.30;99.90;;;;;;6082525;23;20814;-70
2022/09/03 02:50:09;;;;;;;1.50;1.40;;;17.30;99.90;;;;;;6081682;23;20482;-69
2022/09/03 02:52:36;;;;;;;2.10;2.00;;;17.30;99.90;;;;;;6083704;23;20561;-68
2022/09/03 02:55:03;;;;;;;1.80;1.70;;;17.20;99.90;;;;;;6087095;23;20980;-69
2022/09/03 02:57:31;;;;;;;1.77;1.67;;;17.20;99.90;;;;;;6087392;23;20471;-68
2022/09/03 02:59:58;;;;;;;1.83;1.50;;;17.20;99.90;;;;;;6089567;23;20460;-68
2022/09/03 03:02:25;;;;;;;1.67;1.57;;;17.20;99.90;;;;;;6083930;23;20537;-68
2022/09/03 03:04:53;;;;;;;2.53;1.80;;;17.20;99.90;;;;;;6088234;23;20438;-71
2022/09/03 03:07:22;;;;;;;1.70;1.60;;;17.10;99.90;;;;;;6085270;23;20524;-71
2022/09/03 03:09:49;;;;;;;2.10;1.90;;;17.10;99.90;;;;;;6090227;23;20446;-70
2022/09/03 03:12:18;;;;;;;1.80;1.70;;;17.10;99.90;;;;;;6075896;23;21035;-71
2022/09/03 03:14:45;;;;;;;2.60;1.43;;;17.10;99.90;;;;;;6072259;23;20826;-71
2022/09/03 03:17:11;;;;;;;1.90;1.63;;;17.10;99.90;;;;;;6083347;23;20431;-71
2022/09/03 03:19:38;;;;;;;2.27;2.00;;;17.00;99.90;;;;;;6088868;23;20937;-71
2022/09/03 03:22:05;;;;;;;3.77;2.03;;;17.00;99.90;;;;;;6085228;23;20971;-69
2022/09/03 03:24:34;;;;;;;2.70;1.70;;;17.00;99.90;;;;;;6088494;23;20452;-68
2022/09/03 03:27:06;;;;;;;2.20;1.70;;;17.00;99.90;;;;;;6081162;23;20466;-68
2022/09/03 03:29:33;;;;;;;2.13;1.60;;;17.00;99.90;;;;;;6087879;23;20442;-68
2022/09/03 03:32:00;;;;;;;2.90;1.80;;;16.90;99.90;;;;;;6082427;23;20444;-68
2022/09/03 03:34:27;;;;;;;2.27;2.07;;;16.90;99.90;;;;;;6089995;23;21008;-68
2022/09/03 03:36:55;;;;;;;4.40;1.77;;;16.90;99.90;;;;;;6083275;23;20442;-68
2022/09/03 03:39:22;;;;;;;1.83;1.47;;;16.90;99.90;;;;;;6089112;23;21238;-68
2022/09/03 03:41:51;;;;;;;1.87;1.77;;;16.90;99.90;;;;;;6084298;23;20948;-68
2022/09/03 03:44:19;;;;;;;1.57;1.47;;;16.90;99.90;;;;;;6088888;23;21217;-68
2022/09/03 03:46:46;;;;;;;1.50;1.40;;;16.90;99.90;;;;;;6080449;23;21032;-68
2022/09/03 03:49:13;;;;;;;1.63;1.53;;;16.90;99.90;;;;;;6088606;23;20948;-68
2022/09/03 03:51:40;;;;;;;2.00;1.70;;;16.90;99.90;;;;;;6086125;23;20439;-68
2022/09/03 03:54:07;;;;;;;2.20;1.80;;;16.90;99.90;;;;;;6092715;23;20553;-68
2022/09/03 03:56:35;;;;;;;2.03;1.67;;;16.90;99.90;;;;;;6086619;23;20458;-68
2022/09/03 03:59:04;;;;;;;3.30;1.70;;;16.90;99.90;;;;;;6090109;23;20452;-68
2022/09/03 04:01:31;;;;;;;1.87;1.77;;;16.90;99.90;;;;;;6080346;23;20430;-68
2022/09/03 04:03:59;;;;;;;1.93;1.50;;;16.90;99.90;;;;;;6082210;23;20494;-68
2022/09/03 04:06:27;;;;;;;1.87;1.60;;;16.90;99.90;;;;;;6086935;23;20442;-68
2022/09/03 04:08:54;;;;;;;2.20;1.90;;;16.80;99.90;;;;;;6088774;23;20439;-68
2022/09/03 04:11:23;;;;;;;1.90;1.80;;;16.80;99.90;;;;;;6086791;23;20474;-69
2022/09/03 04:13:51;;;;;;;2.00;1.90;;;16.80;99.90;;;;;;6081992;23;20473;-69
2022/09/03 04:16:21;;;;;;;2.37;2.17;;;16.80;99.90;;;;;;6083414;23;20467;-68
2022/09/03 04:18:49;;;;;;;2.00;1.70;;;16.80;99.90;;;;;;6090458;23;20434;-68
2022/09/03 04:21:18;;;;;;;2.90;2.13;;;16.80;99.90;;;;;;6087468;23;22614;-68
2022/09/03 04:23:47;;;;;;;1.77;1.60;;;16.70;99.90;;;;;;6087472;23;20458;-68
2022/09/03 04:26:16;;;;;;;2.60;1.87;;;16.70;99.90;;;;;;6087124;23;20434;-68
2022/09/03 04:28:44;;;;;;;2.07;1.87;;;16.70;99.90;;;;;;6089650;23;20793;-68
2022/09/03 04:31:14;;;;;;;2.17;1.80;;;16.70;99.90;;;;;;6087238;23;20439;-69
2022/09/03 04:33:42;;;;;;;1.70;1.60;;;16.70;99.90;;;;;;6084888;23;20461;-68
2022/09/03 04:36:11;;;;;;;2.40;1.77;;;16.70;99.90;;;;;;6084859;23;20466;-69
2022/09/03 04:38:40;;;;;;;2.17;1.97;;;16.70;99.90;;;;;;6088778;23;20775;-68
2022/09/03 04:41:09;;;;;;;1.90;1.80;;;16.80;99.90;;;;;;6087962;23;20511;-68
2022/09/03 04:43:36;;;;;;;1.80;1.70;;;16.70;99.90;;;;;;6086348;23;20515;-68
2022/09/03 04:46:05;;;;;;;1.97;1.80;;;16.70;99.90;;;;;;6083048;23;20488;-68
2022/09/03 04:48:34;;;;;;;2.30;2.03;;;16.70;99.90;;;;;;6088965;23;20818;-68
2022/09/03 04:51:04;;;;;;;2.13;1.73;;;16.70;99.90;;;;;;6084633;23;20469;-69
2022/09/03 04:53:32;;;;;;;2.20;1.90;;;16.70;99.90;;;;;;6085336;23;20865;-68
2022/09/03 04:55:59;;;;;;;2.27;1.70;;;16.70;99.90;;;;;;6084482;23;20458;-69
2022/09/03 04:58:27;;;;;;;1.77;1.67;;;16.70;99.90;;;;;;6085569;23;20446;-69
2022/09/03 05:00:54;;;;;;;3.30;1.90;;;16.70;99.90;;;;;;6081356;23;20500;-68
2022/09/03 05:03:21;;;;;;;1.97;1.77;;;16.60;99.90;;;;;;6087346;23;20877;-69
2022/09/03 05:05:53;;;;;;;2.77;1.87;;;16.60;99.90;;;;;;6085747;23;20434;-68
2022/09/03 05:08:22;;;;;;;2.70;1.97;;;16.60;99.90;;;;;;6087326;23;20453;-69
2022/09/03 05:10:49;;;;;;;2.10;1.90;;;16.60;99.90;;;;;;6088404;23;20481;-68
2022/09/03 05:13:16;;;;;;;1.70;1.60;;;16.60;99.90;;;;;;6088959;23;20485;-70
2022/09/03 05:15:44;;;;;;;2.30;2.10;;;16.60;99.90;;;;;;6081155;23;20482;-70
2022/09/03 05:18:12;;;;;;;2.23;1.90;;;16.60;99.90;;;;;;6074298;23;20435;-70
2022/09/03 05:20:39;;;;;;;1.90;1.70;;;16.70;99.90;;;;;;6084609;23;20522;-69
2022/09/03 05:23:06;;;;;;;2.83;2.60;;;16.70;99.90;;;;;;6077833;23;20952;-69
2022/09/03 05:25:36;;;;;;;2.50;1.90;;;16.70;99.90;;;;;;6079716;23;20502;-68
2022/09/03 05:28:04;;;;;;;2.23;2.00;;;16.70;99.90;;;;;;6084095;23;20461;-68
2022/09/03 05:30:31;;;;;;;3.07;1.73;;;16.60;99.90;;;;;;6088274;23;20435;-68
2022/09/03 05:32:58;;;;;;;2.30;1.80;;;16.60;99.90;;;;;;6083526;23;20479;-70
2022/09/03 05:35:25;;;;;;;1.90;1.80;;;16.60;99.90;;;;;;6065014;23;20458;-71
2022/09/03 05:37:55;;;;;;;2.20;1.90;;;16.60;99.90;;;;;;6080400;23;21313;-71
2022/09/03 05:40:22;;;;;;;3.20;2.40;;;16.60;99.90;;;;;;6071886;23;20891;-70
2022/09/03 05:42:57;;;;;;;2.30;2.10;;;16.60;99.90;;;;;;6077620;23;20549;-71
2022/09/03 05:45:24;;;;;;;2.40;2.30;;;16.60;99.90;;;;;;6077345;23;20439;-70
2022/09/03 05:47:51;;;;;;;1.97;1.87;;;16.60;99.90;;;;;;6085444;23;20435;-70
2022/09/03 05:50:18;;;;;;;3.17;2.00;;;16.70;99.90;;;;;;6080697;23;20532;-71
2022/09/03 05:52:45;;;;;;;2.30;1.93;;;16.80;99.90;;;;;;6089619;23;20482;-70
2022/09/03 05:55:12;;;;;;;1.90;1.80;;;16.80;99.90;;;;;;6073658;23;20476;-70
2022/09/03 05:57:40;;;;;;;2.40;2.20;;;16.90;99.90;;;;;;6085311;23;20435;-70
2022/09/03 06:00:10;;;;;;;2.30;1.83;;;17.00;99.90;;;;;;6085833;23;20485;-70
2022/09/03 06:02:37;;;;;;;1.87;1.77;;;17.00;99.90;;;;;;6082284;23;20454;-70
2022/09/03 06:05:05;;;;;;;3.23;2.03;;;16.90;99.90;;;;;;6085966;23;20435;-71
2022/09/03 06:07:33;;;;;;;2.13;1.93;;;16.90;99.90;;;;;;6084659;23;20944;-70
2022/09/03 06:09:59;;;;;;;2.37;2.20;;;16.90;99.90;;;;;;6089144;23;21097;-69
2022/09/03 06:12:26;;;;;;;2.10;1.97;;;16.90;99.90;;;;;;6084568;23;20451;-70
2022/09/03 06:14:54;;;;;;;2.23;2.03;;;16.90;99.90;;;;;;6078392;23;20493;-71
2022/09/03 06:17:22;;;;;;;2.50;1.93;;;16.90;99.90;;;;;;6084111;23;20806;-71
2022/09/03 06:19:49;;;;;;;2.23;2.00;;;17.00;99.90;;;;;;6075063;23;20526;-70
2022/09/03 06:22:16;;;;;;;2.07;1.97;;;17.00;99.90;;;;;;6086601;23;20459;-72
2022/09/03 06:24:43;;;;;;;3.40;2.00;;;17.00;99.90;;;;;;6076150;23;21163;-74
2022/09/03 06:27:11;;;;;;;2.70;2.00;;;17.00;99.90;;;;;;6073785;23;20434;-70
2022/09/03 06:29:38;;;;;;;2.53;2.03;;;17.00;99.90;;;;;;6086505;23;20481;-70
2022/09/03 06:32:05;;;;;;;2.80;2.03;;;17.00;99.90;;;;;;6080609;23;20454;-71
2022/09/03 06:34:34;;;;;;;2.40;2.20;;;17.10;99.90;;;;;;6083800;23;20980;-70
2022/09/03 06:37:01;;;;;;;2.80;1.90;;;17.20;99.90;;;;;;6077750;23;21052;-67
2022/09/03 06:39:28;;;;;;;1.90;1.80;;;17.20;99.90;;;;;;6083642;23;20434;-67
2022/09/03 06:41:55;;;;;;;2.20;1.90;;;17.40;99.90;;;;;;6086153;23;20442;-68
2022/09/03 06:44:22;;;;;;;2.03;1.93;;;17.30;99.90;;;;;;6080533;23;20976;-67
2022/09/03 06:46:52;;;;;;;2.00;1.77;;;17.30;99.90;;;;;;6074944;23;20454;-67
2022/09/03 06:49:20;;;;;;;2.10;1.90;;;17.40;99.90;;;;;;6084411;23;20438;-67
2022/09/03 06:51:49;;;;;;;2.30;2.10;;;17.40;99.90;;;;;;6080421;23;20443;-67
2022/09/03 06:54:16;;;;;;;2.03;1.87;;;17.60;99.90;;;;;;6077543;23;20443;-67
2022/09/03 06:56:43;;;;;;;2.47;2.27;;;17.40;99.90;;;;;;6081888;23;20563;-71
2022/09/03 06:59:11;;;;;;;4.73;2.10;;;17.50;99.90;;;;;;6076917;23;20450;-70
2022/09/03 07:01:40;;;;;;;2.37;2.00;;;17.60;99.90;;;;;;6082302;23;21024;-70
2022/09/03 07:04:08;;;;;;;4.10;2.50;;;17.70;99.90;;;;;;6068181;23;20451;-72
2022/09/03 07:06:38;;;;;;;2.40;1.93;;;17.70;99.90;;;;;;6088332;23;20797;-72
2022/09/03 07:09:07;;;;;;;2.00;1.90;;;17.70;99.90;;;;;;6080390;23;20439;-75
2022/09/03 07:11:35;;;;;;;2.20;2.00;;;17.90;99.90;;;;;;6076190;23;20789;-71
2022/09/03 07:14:03;;;;;;;2.70;2.50;;;17.90;99.90;;;;;;6060434;23;20439;-72
2022/09/03 07:16:34;;;;;;;2.03;1.83;;;17.90;99.90;;;;;;6083983;23;20483;-71
2022/09/03 07:19:02;;;;;;;2.37;2.17;;;18.00;99.90;;;;;;6089813;23;20419;-71
2022/09/03 07:21:32;;;;;;;2.57;1.90;;;18.00;99.90;;;;;;6089405;23;20513;-71
2022/09/03 07:24:01;;;;;;;3.33;2.50;;;18.20;99.90;;;;;;6086233;23;20435;-71
2022/09/03 07:26:32;;;;;;;2.30;2.10;;;18.30;99.90;;;;;;6087977;23;20438;-72
2022/09/03 07:29:00;;;;;;;2.20;2.10;;;18.40;99.90;;;;;;6089942;23;20480;-72
2022/09/03 07:31:30;;;;;;;1.97;1.87;;;18.60;99.90;;;;;;6086924;23;20441;-70
2022/09/03 07:33:58;;;;;;;2.90;2.70;;;18.50;99.90;;;;;;6064799;23;20453;-71
2022/09/03 07:36:29;;;;;;;3.50;2.30;;;18.50;99.90;;;;;;6062594;23;20502;-72
2022/09/03 07:38:57;;;;;;;2.60;2.40;;;18.40;99.90;;;;;;6071952;23;20447;-71
2022/09/03 07:41:27;;;;;;;2.57;2.37;;;18.50;99.90;;;;;;6088366;23;20446;-71
2022/09/03 07:43:55;;;;;;;2.77;2.50;;;18.60;99.90;;;;;;6063868;23;20603;-71
2022/09/03 07:46:24;;;;;;;3.07;2.77;;;18.70;99.90;;;;;;6088937;23;20507;-71
2022/09/03 07:48:52;;;;;;;2.80;2.60;;;18.70;99.90;;;;;;6080690;23;20454;-71
2022/09/03 07:51:20;;;;;;;2.90;2.70;;;18.80;99.90;;;;;;6091366;23;20484;-71
2022/09/03 07:53:48;;;;;;;4.30;2.30;;;18.80;99.90;;;;;;6079984;23;20450;-72
2022/09/03 07:56:15;;;;;;;2.90;2.57;;;18.90;99.90;;;;;;6089572;23;20980;-72
2022/09/03 07:58:43;;;;;;;2.87;2.53;;;19.10;99.90;;;;;;6089093;23;20452;-71
2022/09/03 08:01:12;;;;;;;3.93;2.37;;;19.20;99.90;;;;;;6076305;23;20538;-83
2022/09/03 08:03:43;;;;;;;3.03;2.83;;;19.10;99.90;;;;;;6069136;23;20526;-71
2022/09/03 08:06:11;;;;;;;2.87;2.67;;;19.20;99.90;;;;;;6073655;23;20436;-71
2022/09/03 08:08:39;;;;;;;4.70;2.73;;;19.40;99.90;;;;;;6073831;23;20435;-72
2022/09/03 08:11:08;;;;;;;3.60;2.77;;;19.70;99.90;;;;;;6080452;23;20926;-72
2022/09/03 08:13:36;;;;;;;3.13;2.83;;;19.90;99.90;;;;;;6085488;23;20453;-81
2022/09/03 08:16:04;;;;;;;2.93;2.63;;;20.30;99.90;;;;;;6076716;23;20477;-70
2022/09/03 08:18:36;;;;;;;3.37;3.00;;;20.60;99.90;;;;;;6077660;23;20446;-71
2022/09/03 08:21:06;;;;;;;3.03;2.80;;;20.90;99.90;;;;;;6074798;23;20497;-71
2022/09/03 08:23:36;;;;;;;2.37;2.20;;;21.30;99.90;;;;;;6078887;23;20458;-71
2022/09/03 08:26:03;;;;;;;2.40;2.20;;;21.20;99.90;;;;;;6082431;23;20499;-71
2022/09/03 08:28:31;;;;;;;3.03;2.77;;;21.40;99.90;;;;;;6083627;23;20473;-71
2022/09/03 08:30:58;;;;;;;2.93;2.73;;;21.50;99.90;;;;;;6084824;23;20446;-72
2022/09/03 08:33:36;;;;;;;3.03;2.73;;;21.60;99.90;;;;;;6078310;23;20570;-72
2022/09/03 08:36:08;;;;;;;2.90;2.70;;;21.80;99.90;;;;;;6078423;23;20522;-71
2022/09/03 08:38:37;;;;;;;3.30;2.53;;;22.40;99.90;;;;;;6076309;23;20457;-71
2022/09/03 08:41:10;;;;;;;4.33;2.70;;;23.00;99.90;;;;;;6074957;23;20434;-72
2022/09/03 08:44:01;;;;;;;3.00;2.80;;;23.50;99.90;;;;;;6078189;23;20453;-72
2022/09/03 08:46:38;;;;;;;2.57;2.37;;;23.80;99.90;;;;;;6083034;23;20569;-73
2022/09/03 08:49:06;;;;;;;3.10;2.80;;;24.00;99.90;;;;;;6084975;23;20932;-72
2022/09/03 08:51:39;;;;;;;3.30;3.00;;;24.10;99.90;;;;;;6086241;23;20433;-72
2022/09/03 08:54:09;;;;;;;3.07;2.80;;;24.10;99.90;;;;;;6079121;23;20455;-71
2022/09/03 08:56:40;;;;;;;4.80;3.07;;;24.10;99.90;;;;;;6079621;23;20464;-72
2022/09/03 08:59:08;;;;;;;2.90;2.70;;;24.10;99.90;;;;;;6083487;23;20791;-72
2022/09/03 09:01:44;;;;;;;3.00;2.80;;;24.00;99.90;;;;;;6078298;23;20473;-71
2022/09/03 09:04:24;;;;;;;3.00;2.70;;;24.00;99.90;;;;;;6078534;23;20454;-71
2022/09/03 09:06:59;;;;;;;3.00;2.80;;;23.90;99.90;;;;;;6078304;23;20447;-72
2022/09/03 09:09:32;;;;;;;3.30;3.10;;;23.90;99.90;;;;;;6085136;23;20440;-72
2022/09/03 09:12:14;;;;;;;3.10;2.90;;;23.80;99.90;;;;;;6077558;23;20460;-72
2022/09/03 09:14:48;;;;;;;3.30;3.10;;;23.90;99.90;;;;;;6081089;23;20492;-72
2022/09/03 09:17:30;;;;;;;4.80;3.00;;;24.00;99.90;;;;;;6074812;23;20556;-72
2022/09/03 09:20:11;;;;;;;3.50;3.20;;;24.00;99.90;;;;;;6082928;23;20525;-72
2022/09/03 09:22:44;;;;;;;3.40;3.20;;;24.00;99.90;;;;;;6076596;23;21036;-72
2022/09/03 09:25:16;;;;;;;3.37;3.10;;;24.00;99.90;;;;;;6080928;23;20948;-72
2022/09/03 09:27:50;;;;;;;3.43;3.13;;;23.90;99.90;;;;;;6071727;23;21013;-72
2022/09/03 09:30:19;;;;;;;3.30;3.00;;;23.80;99.90;;;;;;6077428;23;20447;-72
2022/09/03 09:32:46;;;;;;;3.27;3.00;;;23.80;99.90;;;;;;6071316;23;21934;-72
2022/09/03 09:35:15;;;;;;;4.00;2.60;;;23.90;99.90;;;;;;6075638;23;20914;-73
2022/09/03 09:37:52;;;;;;;3.80;3.50;;;24.00;99.90;;;;;;6065831;23;20479;-73
2022/09/03 09:40:34;;;;;;;3.33;3.03;;;24.20;99.90;;;;;;6074759;23;20477;-75
2022/09/03 09:43:10;;;;;;;3.30;2.90;;;24.50;99.90;;;;;;6078202;23;20453;-72
2022/09/03 09:45:39;;;;;;;3.17;2.87;;;24.60;99.90;;;;;;6079915;23;20503;-71
2022/09/03 09:48:17;;;;;;;3.67;2.77;;;24.80;99.70;;;;;;6080948;23;20470;-72
2022/09/03 09:50:44;;;;;;;3.30;3.00;;;24.80;99.40;;;;;;6086495;23;20782;-71
2022/09/03 09:53:17;;;;;;;3.30;3.00;;;24.90;99.30;;;;;;6078095;23;20553;-72
2022/09/03 09:55:52;;;;;;;2.80;2.60;;;25.00;99.30;;;;;;6087787;23;20450;-72
2022/09/03 09:58:22;;;;;;;3.47;2.70;;;25.40;99.00;;;;;;6082793;23;20470;-73
2022/09/03 10:01:02;;;;;;;2.60;2.40;;;26.10;98.10;;;;;;6083559;23;20945;-72
2022/09/03 10:03:33;;;;;;;3.23;3.03;;;26.90;97.20;;;;;;6086777;23;20523;-73
2022/09/03 10:09:07;;;;;;;2.87;2.67;;;27.30;94.90;;;;;;6061643;23;20428;-72
2022/09/03 10:11:36;;;;;;;2.90;2.70;;;27.10;94.90;;;;;;6075484;23;20434;-72
2022/09/03 10:14:11;;;;;;;3.80;2.50;;;26.90;95.20;;;;;;6084939;23;20466;-72
2022/09/03 10:16:47;;;;;;;3.70;3.17;;;26.90;95.30;;;;;;6085482;23;20431;-73
2022/09/03 10:19:18;;;;;;;2.73;2.53;;;26.70;95.10;;;;;;6082796;23;20433;-72
2022/09/03 10:21:54;;;;;;;2.70;2.50;;;26.70;95.00;;;;;;6083677;23;20473;-69
2022/09/03 10:24:40;;;;;;;3.77;3.00;;;26.90;95.30;;;;;;6065857;23;20453;-70
2022/09/03 10:27:11;;;;;;;3.83;3.27;;;27.30;94.30;;;;;;6073701;23;20529;-70
2022/09/03 10:29:40;;;;;;;3.43;3.13;;;27.80;93.30;;;;;;6073590;23;20534;-70
2022/09/03 10:32:24;;;;;;;3.23;3.03;;;28.20;92.70;;;;;;6074975;23;20477;-70
2022/09/03 10:35:01;;;;;;;2.87;2.67;;;28.60;92.30;;;;;;6085776;23;20513;-70
2022/09/03 10:37:38;;;;;;;3.27;2.47;;;28.90;91.60;;;;;;6083333;23;20466;-70
2022/09/03 10:40:16;;;;;;;2.90;2.70;;;29.00;90.80;;;;;;6074315;23;20439;-71
2022/09/03 10:42:47;;;;;;;4.20;2.50;;;29.00;90.80;;;;;;6078934;23;20462;-69
2022/09/03 10:45:32;;;;;;;2.87;2.60;;;29.00;90.50;;;;;;6084719;23;20442;-71
2022/09/03 10:48:14;;;;;;;3.10;2.80;;;29.00;90.70;;;;;;6087205;23;20484;-70
2022/09/03 10:50:48;;;;;;;3.13;2.77;;;29.20;89.60;;;;;;6090873;23;20445;-69
2022/09/03 10:53:28;;;;;;;3.00;2.80;;;29.50;88.00;;;;;;6084905;23;20450;-69
2022/09/03 10:56:01;;;;;;;2.97;2.77;;;29.80;87.60;;;;;;6084745;23;20450;-70
2022/09/03 10:58:44;;;;;;;3.17;2.90;;;30.20;85.20;;;;;;6081775;23;20672;-70
2022/09/03 11:01:21;;;;;;;2.40;2.30;;;29.70;85.30;;;;;;6081559;23;20434;-70
2022/09/03 11:03:53;;;;;;;2.83;2.63;;;29.20;86.40;;;;;;6087784;23;20458;-70
2022/09/03 11:06:25;;;;;;;3.00;2.80;;;28.80;87.00;;;;;;6080939;23;20550;-70
2022/09/03 11:08:58;;;;;;;2.67;2.47;;;28.60;87.90;;;;;;6085572;23;20972;-68
2022/09/03 11:11:32;;;;;;;3.20;2.90;;;28.30;88.50;;;;;;6081772;23;20588;-69
2022/09/03 11:14:06;;;;;;;3.07;2.87;;;28.10;89.50;;;;;;6085024;23;20500;-69
2022/09/03 11:16:39;;;;;;;3.40;3.10;;;27.70;90.20;;;;;;6072438;23;20528;-69
2022/09/03 11:19:10;;;;;;;2.40;2.20;;;27.20;90.50;;;;;;6086120;23;20466;-69
2022/09/03 11:21:40;;;;;;;3.17;2.87;;;26.90;91.50;;;;;;6089707;23;20545;-69
2022/09/03 11:24:14;;;;;;;3.10;2.90;;;26.90;91.40;;;;;;6085773;23;20500;-69
2022/09/03 11:26:45;;;;;;;3.40;3.10;;;26.60;92.10;;;;;;6087575;23;20462;-69
2022/09/03 11:29:20;;;;;;;3.03;2.83;;;26.50;92.40;;;;;;6073144;23;20950;-69
2022/09/03 11:31:57;;;;;;;3.30;3.10;;;26.50;92.30;;;;;;6082210;23;20449;-67
2022/09/03 11:34:30;;;;;;;3.30;3.00;;;26.20;92.60;;;;;;6079661;23;20457;-75
2022/09/03 11:37:19;;;;;;;3.30;3.10;;;25.70;93.50;;;;;;6085408;23;20447;-67
2022/09/03 11:39:55;;;;;;;3.33;3.03;;;25.60;93.60;;;;;;6083470;23;20433;-67
2022/09/03 11:42:30;;;;;;;3.57;3.30;;;25.40;94.20;;;;;;6085693;23;20497;-68
2022/09/03 11:45:13;;;;;;;3.30;3.10;;;25.30;94.20;;;;;;6080048;23;20436;-69
2022/09/03 11:47:42;;;;;;;3.03;2.83;;;25.20;94.80;;;;;;6078328;23;20981;-69
2022/09/03 11:50:19;;;;;;;3.27;3.07;;;25.00;95.10;;;;;;6083255;23;20448;-68
2022/09/03 11:52:47;;;;;;;3.60;3.40;;;25.00;95.60;;;;;;6080213;23;20553;-68
2022/09/03 11:55:30;;;;;;;3.67;3.07;;;25.00;95.60;;;;;;6086459;23;20474;-68
2022/09/03 11:57:59;;;;;;;2.87;2.67;;;25.00;96.50;;;;;;6087432;23;20465;-69
2022/09/03 12:00:26;;;;;;;3.13;2.93;;;24.80;95.90;;;;;;6087956;23;20438;-69
2022/09/03 12:03:01;;;;;;;3.20;3.00;;;24.80;96.00;;;;;;6082162;23;20856;-69
2022/09/03 12:05:42;;;;;;;3.93;3.63;;;24.80;96.00;;;;;;6080497;23;20441;-68
2022/09/03 12:08:45;;;;;;;3.17;2.97;;;24.80;96.10;;;;;;6070199;23;20429;-69
2022/09/03 12:11:29;;;;;;;3.70;3.40;;;24.60;96.40;;;;;;6017356;23;20436;-69
2022/09/03 12:14:06;;;;;;;3.77;3.57;;;24.30;97.20;;;;;;6080161;23;20436;-68
2022/09/03 12:16:57;;;;;;;3.50;3.20;;;24.00;97.60;;;;;;6084554;23;20462;-68
2022/09/03 12:19:32;;;;;;;3.23;3.03;;;23.70;98.40;;;;;;6082945;23;20470;-68
2022/09/03 12:22:03;;;;;;;4.10;3.80;;;23.60;98.70;;;;;;6088740;23;20489;-68
2022/09/03 12:24:34;;;;;;;3.50;3.20;;;23.50;99.20;;;;;;6080628;23;20426;-67
2022/09/03 12:27:02;;;;;;;3.90;3.60;;;23.30;99.60;;;;;;6087981;23;20467;-68
2022/09/03 12:29:31;;;;;;;3.90;3.60;;;23.20;99.90;;;;;;6085490;23;20815;-69
2022/09/03 12:32:07;;;;;;;3.90;3.60;;;23.00;99.90;;;;;;6085922;23;20454;-68
2022/09/03 12:34:34;;;;;;;3.70;3.40;;;22.90;99.90;;;;;;6081532;23;20534;-68
2022/09/03 12:37:01;;;;;;;4.10;3.80;;;22.80;99.90;;;;;;6081762;23;20430;-69
2022/09/03 12:39:30;;;;;;;4.17;3.80;;;22.80;99.90;;;;;;6090003;23;20485;-68
2022/09/03 12:42:02;;;;;;;3.80;3.50;;;22.70;99.90;;;;;;6080777;23;20493;-68
2022/09/03 12:44:38;;;;;;;4.00;3.70;;;22.70;99.90;;;;;;6082093;23;20849;-68
2022/09/03 12:47:09;;;;;;;4.53;3.70;;;22.70;99.90;;;;;;6078862;23;20464;-68
2022/09/03 12:49:38;;;;;;;3.90;3.60;;;22.70;99.90;;;;;;6085686;23;20434;-68
2022/09/03 12:52:14;;;;;;;4.20;3.90;;;22.60;99.90;;;;;;6082366;23;20975;-68
2022/09/03 12:54:47;;;;;;;3.83;3.53;;;22.60;99.90;;;;;;6083548;23;20508;-69
2022/09/03 12:57:20;;;;;;;4.07;3.77;;;22.50;99.90;;;;;;6073806;23;20850;-68
2022/09/03 12:59:49;;;;;;;3.70;3.40;;;22.40;99.90;;;;;;6079703;23;20501;-68
2022/09/03 13:02:23;;;;;;;3.07;2.77;;;22.20;99.90;;;;;;6080385;23;20492;-68
2022/09/03 13:04:51;;;;;;;3.10;2.73;;;21.70;99.90;;;;;;6088751;23;20446;-69
2022/09/03 13:07:25;;;;;;;2.83;2.57;;;21.00;99.90;;;;;;6078574;23;20496;-69
2022/09/03 13:10:02;;;;;;;2.50;2.30;;;20.50;99.90;;;;;;6074876;23;20469;-72
2022/09/03 13:12:32;;;;;;;2.30;2.10;;;20.00;99.90;;;;;;6079603;23;20458;-71
2022/09/03 13:15:07;;;;;;;3.20;2.53;;;19.80;99.90;;;;;;6079971;23;20522;-71
2022/09/03 13:18:05;;;;;;;2.90;2.70;;;19.40;99.90;;;;;;6083743;23;20437;-73